createdAt,value
2022-10-18T00:00:02.746Z,18.41
2022-10-18T00:01:02.756Z,18.40
2022-10-18T00:02:02.757Z,18.40
2022-10-18T00:03:02.714Z,18.38
2022-10-18T00:04:02.714Z,18.38
2022-10-18T00:05:02.715Z,18.34
2022-10-18T00:06:02.679Z,18.34
2022-10-18T00:07:02.716Z,18.37
2022-10-18T00:08:02.657Z,18.34
2022-10-18T00:09:02.662Z,18.35
2022-10-18T00:10:02.637Z,18.35
2022-10-18T00:11:02.627Z,18.35
2022-10-18T00:12:02.616Z,18.34
2022-10-18T00:13:02.609Z,18.34
2022-10-18T00:14:02.615Z,18.31
2022-10-18T00:15:02.582Z,18.31
2022-10-18T00:16:02.573Z,18.31
2022-10-18T00:17:02.579Z,18.31
2022-10-18T00:18:02.553Z,18.33
2022-10-18T00:19:02.557Z,18.33
2022-10-18T00:20:02.566Z,18.33
2022-10-18T00:21:02.524Z,18.35
2022-10-18T00:22:02.507Z,18.35
2022-10-18T00:23:02.495Z,18.35
2022-10-18T00:24:02.486Z,18.35
2022-10-18T00:25:02.485Z,18.31
2022-10-18T00:26:02.489Z,18.29
2022-10-18T00:27:02.461Z,18.31
2022-10-18T00:28:02.453Z,18.29
2022-10-18T00:29:02.555Z,18.31
2022-10-18T00:30:02.436Z,18.31
2022-10-18T00:31:02.432Z,18.34
2022-10-18T00:32:02.400Z,18.34
2022-10-18T00:33:02.401Z,18.35
2022-10-18T00:34:02.380Z,18.35
2022-10-18T00:35:02.378Z,18.37
2022-10-18T00:36:02.373Z,18.35
2022-10-18T00:37:02.364Z,18.37
2022-10-18T00:38:02.333Z,18.37
2022-10-18T00:39:02.334Z,18.34
2022-10-18T00:40:02.324Z,18.34
2022-10-18T00:41:02.309Z,18.31
2022-10-18T00:42:02.299Z,18.25
2022-10-18T00:43:02.322Z,18.23
2022-10-18T00:44:02.279Z,18.20
2022-10-18T00:45:02.296Z,18.20
2022-10-18T00:46:02.293Z,18.20
2022-10-18T00:47:02.280Z,18.18
2022-10-18T00:48:02.262Z,18.18
2022-10-18T00:49:02.273Z,18.15
2022-10-18T00:50:02.227Z,18.19
2022-10-18T00:51:02.216Z,18.18
2022-10-18T00:52:02.251Z,18.15
2022-10-18T00:53:02.251Z,18.16
2022-10-18T00:54:02.176Z,18.16
2022-10-18T00:55:02.180Z,18.18
2022-10-18T00:56:02.144Z,18.13
2022-10-18T00:57:02.156Z,18.15
2022-10-18T00:58:02.131Z,18.11
2022-10-18T00:59:02.118Z,18.07
2022-10-18T01:00:02.131Z,18.04
2022-10-18T01:01:02.139Z,18.01
2022-10-18T01:02:02.159Z,18.00
2022-10-18T01:03:02.069Z,18.00
2022-10-18T01:04:02.079Z,18.00
2022-10-18T01:05:02.059Z,18.01
2022-10-18T01:06:02.048Z,18.01
2022-10-18T01:07:02.043Z,18.00
2022-10-18T01:08:02.031Z,18.00
2022-10-18T01:09:02.036Z,18.00
2022-10-18T01:10:02.026Z,17.97
2022-10-18T05:01:16.153Z,16.76
2022-10-18T05:02:17.045Z,16.72
2022-10-18T05:03:17.031Z,16.78
2022-10-18T05:04:17.017Z,16.76
2022-10-18T05:05:17.012Z,16.78
2022-10-18T05:06:17.020Z,16.75
2022-10-18T05:07:17.004Z,16.74
2022-10-18T05:08:16.976Z,16.69
2022-10-18T05:09:16.987Z,16.68
2022-10-18T05:10:16.954Z,16.65
2022-10-18T05:11:16.967Z,16.64
2022-10-18T05:12:16.938Z,16.64
2022-10-18T05:13:16.930Z,16.64
2022-10-18T05:14:16.903Z,16.64
2022-10-18T05:15:16.905Z,16.61
2022-10-18T05:16:16.887Z,16.65
2022-10-18T05:17:22.953Z,16.65
2022-10-18T05:18:16.866Z,16.69
2022-10-18T05:19:16.862Z,16.72
2022-10-18T05:20:16.854Z,16.69
2022-10-18T05:21:16.839Z,16.72
2022-10-18T05:22:16.830Z,16.75
2022-10-18T05:23:16.829Z,16.74
2022-10-18T05:24:16.817Z,16.75
2022-10-18T05:25:16.808Z,16.75
2022-10-18T05:26:16.791Z,16.75
2022-10-18T05:27:16.779Z,16.74
2022-10-18T05:28:38.364Z,16.72
2022-10-18T05:29:16.880Z,16.74
2022-10-18T05:30:16.731Z,16.75
2022-10-18T05:31:16.681Z,16.75
2022-10-18T05:32:16.683Z,16.74
2022-10-18T05:33:16.713Z,16.72
2022-10-18T05:34:16.703Z,16.74
2022-10-18T05:35:16.650Z,16.72
2022-10-18T05:36:16.653Z,16.71
2022-10-18T05:37:16.615Z,16.66
2022-10-18T05:38:16.599Z,16.64
2022-10-18T05:39:16.590Z,16.58
2022-10-18T05:40:16.620Z,16.56
2022-10-18T05:41:16.571Z,16.58
2022-10-18T05:42:16.564Z,16.58
2022-10-18T05:43:16.551Z,16.56
2022-10-18T05:44:16.548Z,16.57
2022-10-18T05:45:16.531Z,16.56
2022-10-18T05:46:16.539Z,16.54
2022-10-18T05:47:16.509Z,16.58
2022-10-18T05:48:16.511Z,16.56
2022-10-18T05:49:16.486Z,16.60
2022-10-18T05:50:16.469Z,16.60
2022-10-18T05:51:16.480Z,16.56
2022-10-18T05:52:16.468Z,16.57
2022-10-18T05:53:35.724Z,16.58
2022-10-18T05:54:16.436Z,16.57
2022-10-18T05:55:16.426Z,16.58
2022-10-18T05:56:16.449Z,16.58
2022-10-18T05:57:16.404Z,16.58
2022-10-18T05:58:16.416Z,16.60
2022-10-18T05:59:16.382Z,16.57
2022-10-18T06:00:16.366Z,16.57
2022-10-18T06:01:16.380Z,16.56
2022-10-18T06:02:16.401Z,16.56
2022-10-18T06:03:16.335Z,16.54
2022-10-18T06:04:16.333Z,16.54
2022-10-18T06:05:16.316Z,16.53
2022-10-18T06:06:16.300Z,16.50
2022-10-18T06:07:16.316Z,16.42
2022-10-18T06:08:16.274Z,16.42
2022-10-18T06:09:16.306Z,16.42
2022-10-18T06:10:16.281Z,16.43
2022-10-18T06:11:16.251Z,16.43
2022-10-18T06:12:16.237Z,16.43
2022-10-18T06:13:16.231Z,16.46
2022-10-18T06:14:16.232Z,16.46
2022-10-18T06:15:16.221Z,16.50
2022-10-18T06:16:16.284Z,16.51
2022-10-18T06:17:16.249Z,16.53
2022-10-18T06:18:16.182Z,16.50
2022-10-18T06:19:16.167Z,16.51
2022-10-18T06:20:16.165Z,16.49
2022-10-18T06:21:16.150Z,16.49
2022-10-18T06:22:16.147Z,16.50
2022-10-18T06:23:16.116Z,16.49
2022-10-18T06:24:16.127Z,16.46
2022-10-18T06:25:16.111Z,16.42
2022-10-18T06:26:16.088Z,16.42
2022-10-18T06:27:16.086Z,16.39
2022-10-18T06:28:16.087Z,16.38
2022-10-18T06:29:16.075Z,16.38
2022-10-18T06:30:16.049Z,16.38
2022-10-18T06:31:16.032Z,16.42
2022-10-18T06:32:16.077Z,16.41
2022-10-18T06:33:16.014Z,16.41
2022-10-18T06:34:16.026Z,16.42
2022-10-18T06:35:16.004Z,16.46
2022-10-18T06:36:15.978Z,16.50
2022-10-18T06:37:15.975Z,16.47
2022-10-18T06:38:15.957Z,16.51
2022-10-18T06:39:15.955Z,16.56
2022-10-18T06:40:15.965Z,16.53
2022-10-18T06:41:15.962Z,16.54
2022-10-18T06:42:17.990Z,16.57
2022-10-18T06:43:21.031Z,16.56
2022-10-18T06:44:15.899Z,16.56
2022-10-18T06:45:15.935Z,16.58
2022-10-18T06:46:15.893Z,16.58
2022-10-18T06:47:15.880Z,16.60
2022-10-18T06:48:15.900Z,16.64
2022-10-18T06:49:18.320Z,16.61
2022-10-18T06:50:15.871Z,16.65
2022-10-18T06:51:15.824Z,16.65
2022-10-18T06:52:15.825Z,16.65
2022-10-18T06:53:15.834Z,16.66
2022-10-18T06:54:18.393Z,16.61
2022-10-18T06:55:15.784Z,16.60
2022-10-18T06:56:15.785Z,16.60
2022-10-18T06:57:15.768Z,16.61
2022-10-18T06:58:15.771Z,16.58
2022-10-18T06:59:15.741Z,16.60
2022-10-18T07:00:15.726Z,16.57
2022-10-18T07:01:15.801Z,16.61
2022-10-18T07:02:15.702Z,16.61
2022-10-18T07:03:15.713Z,16.66
2022-10-18T07:04:15.700Z,16.66
2022-10-18T07:05:15.678Z,16.69
2022-10-18T07:06:15.657Z,16.71
2022-10-18T07:07:15.679Z,16.69
2022-10-18T07:08:15.748Z,16.68
2022-10-18T07:09:15.653Z,16.69
2022-10-18T07:10:15.634Z,16.71
2022-10-18T07:11:15.610Z,16.68
2022-10-18T07:12:15.604Z,16.71
2022-10-18T07:13:31.493Z,16.66
2022-10-18T07:14:16.579Z,16.66
2022-10-18T07:15:15.567Z,16.68
2022-10-18T07:16:18.178Z,16.66
2022-10-18T07:17:15.547Z,16.66
2022-10-18T07:18:15.527Z,16.66
2022-10-18T07:19:15.539Z,16.69
2022-10-18T07:20:15.600Z,16.68
2022-10-18T07:21:15.516Z,16.74
2022-10-18T07:22:15.510Z,16.75
2022-10-18T07:23:15.523Z,16.74
2022-10-18T07:24:15.466Z,16.76
2022-10-18T07:25:15.465Z,16.78
2022-10-18T07:26:15.472Z,16.78
2022-10-18T07:27:15.437Z,16.83
2022-10-18T07:28:15.433Z,16.84
2022-10-18T07:29:15.417Z,16.83
2022-10-18T07:30:15.414Z,16.83
2022-10-18T07:31:15.407Z,16.86
2022-10-18T07:32:15.414Z,16.86
2022-10-18T07:33:15.368Z,16.84
2022-10-18T07:34:15.369Z,16.83
2022-10-18T07:35:15.373Z,16.81
2022-10-18T07:36:15.349Z,16.83
2022-10-18T07:37:15.332Z,16.86
2022-10-18T07:38:15.336Z,16.86
2022-10-18T07:39:15.309Z,16.89
2022-10-18T07:40:15.305Z,16.91
2022-10-18T07:41:15.290Z,16.91
2022-10-18T07:42:15.283Z,16.91
2022-10-18T07:43:15.278Z,16.91
2022-10-18T07:44:15.273Z,16.93
2022-10-18T07:45:15.243Z,16.91
2022-10-18T07:46:15.245Z,16.93
2022-10-18T07:47:15.227Z,16.93
2022-10-18T07:48:15.211Z,16.94
2022-10-18T07:49:15.253Z,16.93
2022-10-18T07:50:15.191Z,16.94
2022-10-18T07:51:15.210Z,16.93
2022-10-18T07:52:15.173Z,16.94
2022-10-18T07:53:15.165Z,16.99
2022-10-18T07:54:15.147Z,16.97
2022-10-18T07:55:15.171Z,16.94
2022-10-18T07:56:15.122Z,16.93
2022-10-18T07:57:15.120Z,16.91
2022-10-18T07:58:15.114Z,16.94
2022-10-18T07:59:15.098Z,16.91
2022-10-18T08:00:15.110Z,16.94
2022-10-18T08:01:15.161Z,16.94
2022-10-18T08:02:15.062Z,16.96
2022-10-18T08:03:15.067Z,16.97
2022-10-18T08:04:16.565Z,17.02
2022-10-18T08:05:15.036Z,17.01
2022-10-18T08:06:15.036Z,17.04
2022-10-18T08:07:15.012Z,17.05
2022-10-18T08:08:15.000Z,17.06
2022-10-18T08:09:15.003Z,17.06
2022-10-18T08:10:14.983Z,17.09
2022-10-18T08:11:14.978Z,17.08
2022-10-18T08:12:14.973Z,17.09
2022-10-18T08:13:14.945Z,17.11
2022-10-18T08:14:14.938Z,17.11
2022-10-18T08:15:14.940Z,17.12
2022-10-18T08:16:14.926Z,17.14
2022-10-18T08:17:14.910Z,17.19
2022-10-18T08:18:14.912Z,17.19
2022-10-18T08:19:14.878Z,17.20
2022-10-18T08:20:29.837Z,17.23
2022-10-18T08:21:14.871Z,17.26
2022-10-18T08:22:14.848Z,17.29
2022-10-18T08:23:14.844Z,17.31
2022-10-18T08:24:14.847Z,17.33
2022-10-18T08:25:14.818Z,17.36
2022-10-18T08:26:14.809Z,17.36
2022-10-18T08:27:14.794Z,17.31
2022-10-18T08:28:14.784Z,17.31
2022-10-18T08:29:25.719Z,17.31
2022-10-18T08:30:14.779Z,17.27
2022-10-18T08:31:14.757Z,17.30
2022-10-18T08:32:14.741Z,17.29
2022-10-18T08:33:14.735Z,17.27
2022-10-18T08:34:18.706Z,17.20
2022-10-18T08:35:14.754Z,17.19
2022-10-18T08:36:14.735Z,17.16
2022-10-18T08:37:14.692Z,17.12
2022-10-18T08:38:18.028Z,17.16
2022-10-18T08:39:14.676Z,17.14
2022-10-18T08:40:14.681Z,17.16
2022-10-18T08:41:14.650Z,17.19
2022-10-18T08:42:14.803Z,17.22
2022-10-18T08:43:19.321Z,17.20
2022-10-18T08:44:14.647Z,17.23
2022-10-18T08:45:30.098Z,17.22
2022-10-18T08:46:14.614Z,17.23
2022-10-18T08:47:14.587Z,17.24
2022-10-18T08:48:14.592Z,17.22
2022-10-18T08:49:14.561Z,17.24
2022-10-18T08:50:14.547Z,17.24
2022-10-18T08:51:14.568Z,17.24
2022-10-18T08:52:14.572Z,17.27
2022-10-18T08:53:14.542Z,17.29
2022-10-18T08:54:14.504Z,17.30
2022-10-18T08:55:14.499Z,17.33
2022-10-18T08:56:14.484Z,17.33
2022-10-18T08:57:14.488Z,17.36
2022-10-18T08:58:14.509Z,17.34
2022-10-18T08:59:14.463Z,17.33
2022-10-18T09:00:14.465Z,17.31
2022-10-18T09:01:14.459Z,17.31
2022-10-18T09:02:14.430Z,17.33
2022-10-18T09:03:14.507Z,17.31
2022-10-18T09:04:14.450Z,17.33
2022-10-18T09:05:14.398Z,17.36
2022-10-18T09:06:14.383Z,17.39
2022-10-18T09:07:14.375Z,17.41
2022-10-18T09:08:14.362Z,17.44
2022-10-18T09:09:14.368Z,17.44
2022-10-18T09:10:14.365Z,17.46
2022-10-18T09:11:14.337Z,17.48
2022-10-18T09:12:14.402Z,17.49
2022-10-18T09:13:14.306Z,17.49
2022-10-18T09:14:14.305Z,17.56
2022-10-18T09:15:14.291Z,17.57
2022-10-18T09:16:14.309Z,17.63
2022-10-18T09:17:16.091Z,17.67
2022-10-18T09:18:14.251Z,17.70
2022-10-18T09:19:14.246Z,17.71
2022-10-18T09:20:14.258Z,17.76
2022-10-18T09:21:14.216Z,17.78
2022-10-18T09:22:14.212Z,17.79
2022-10-18T09:23:14.207Z,17.80
2022-10-18T09:24:14.209Z,17.80
2022-10-18T09:25:14.180Z,17.85
2022-10-18T09:26:14.219Z,17.86
2022-10-18T09:27:14.183Z,17.82
2022-10-18T09:28:14.151Z,17.82
2022-10-18T09:29:14.319Z,17.83
2022-10-18T09:30:14.146Z,17.85
2022-10-18T09:31:14.108Z,17.89
2022-10-18T09:32:14.103Z,17.89
2022-10-18T09:33:14.116Z,17.90
2022-10-18T09:34:14.095Z,17.95
2022-10-18T09:35:14.111Z,17.95
2022-10-18T09:36:14.063Z,17.95
2022-10-18T09:37:14.041Z,17.98
2022-10-18T09:38:14.092Z,17.97
2022-10-18T09:39:14.029Z,17.98
2022-10-18T09:40:16.609Z,17.97
2022-10-18T09:41:14.146Z,17.97
2022-10-18T09:42:13.996Z,17.98
2022-10-18T09:43:13.989Z,17.98
2022-10-18T09:44:13.971Z,17.98
2022-10-18T09:45:13.963Z,18.00
2022-10-18T09:46:13.973Z,18.03
2022-10-18T09:47:16.816Z,18.03
2022-10-18T09:48:13.982Z,18.00
2022-10-18T09:49:16.268Z,18.00
2022-10-18T09:50:13.915Z,18.00
2022-10-18T09:51:13.897Z,18.01
2022-10-18T09:52:13.920Z,18.03
2022-10-18T09:53:13.884Z,18.05
2022-10-18T09:54:13.887Z,18.05
2022-10-18T09:55:13.853Z,18.07
2022-10-18T09:56:13.849Z,18.08
2022-10-18T09:57:13.832Z,18.08
2022-10-18T09:58:13.825Z,18.07
2022-10-18T09:59:13.821Z,18.10
2022-10-18T10:00:13.830Z,18.10
2022-10-18T10:01:13.792Z,18.15
2022-10-18T10:02:13.829Z,18.16
2022-10-18T10:03:13.770Z,18.19
2022-10-18T10:04:13.794Z,18.19
2022-10-18T10:05:13.765Z,18.20
2022-10-18T10:06:13.740Z,18.20
2022-10-18T10:07:13.721Z,18.20
2022-10-18T10:08:13.711Z,18.23
2022-10-18T10:09:13.700Z,18.23
2022-10-18T10:10:13.695Z,18.28
2022-10-18T10:11:13.691Z,18.29
2022-10-18T10:12:13.674Z,18.25
2022-10-18T10:13:13.670Z,18.28
2022-10-18T10:14:13.710Z,18.25
2022-10-18T10:15:13.641Z,18.25
2022-10-18T10:16:13.646Z,18.26
2022-10-18T10:17:13.618Z,18.28
2022-10-18T10:18:13.606Z,18.29
2022-10-18T10:19:13.600Z,18.28
2022-10-18T10:20:13.595Z,18.26
2022-10-18T10:21:13.572Z,18.29
2022-10-18T10:22:13.575Z,18.26
2022-10-18T10:23:13.619Z,18.26
2022-10-18T10:24:13.543Z,18.29
2022-10-18T10:25:13.527Z,18.29
2022-10-18T10:26:13.522Z,18.26
2022-10-18T10:27:13.552Z,18.26
2022-10-18T10:28:13.503Z,18.25
2022-10-18T10:29:17.677Z,18.23
2022-10-18T10:30:13.489Z,18.22
2022-10-18T10:31:13.464Z,18.19
2022-10-18T10:32:13.553Z,18.20
2022-10-18T10:33:13.509Z,18.22
2022-10-18T10:34:13.450Z,18.23
2022-10-18T10:35:21.780Z,18.23
2022-10-18T10:36:13.429Z,18.23
2022-10-18T10:37:13.414Z,18.20
2022-10-18T10:38:13.397Z,18.19
2022-10-18T10:39:13.401Z,18.22
2022-10-18T10:40:18.244Z,18.23
2022-10-18T10:41:13.364Z,18.29
2022-10-18T10:42:13.352Z,18.29
2022-10-18T10:43:33.076Z,18.31
2022-10-18T10:44:13.336Z,18.28
2022-10-18T10:45:13.328Z,18.31
2022-10-18T10:46:13.335Z,18.29
2022-10-18T10:47:13.297Z,18.28
2022-10-18T10:48:13.289Z,18.31
2022-10-18T10:49:38.744Z,18.34
2022-10-18T10:50:13.331Z,18.34
2022-10-18T10:51:13.290Z,18.35
2022-10-18T10:52:26.374Z,18.35
2022-10-18T10:53:13.236Z,18.37
2022-10-18T10:54:13.243Z,18.38
2022-10-18T10:56:15.953Z,18.43
2022-10-18T10:57:13.216Z,18.41
2022-10-18T10:58:13.198Z,18.43
2022-10-18T10:59:13.236Z,18.43
2022-10-18T11:00:13.247Z,18.45
2022-10-18T11:01:13.153Z,18.44
2022-10-18T11:02:13.145Z,18.50
2022-10-18T11:03:27.927Z,18.53
2022-10-18T11:04:13.155Z,18.56
2022-10-18T11:05:13.141Z,18.60
2022-10-18T11:06:13.098Z,18.66
2022-10-18T11:07:13.090Z,18.71
2022-10-18T11:08:13.093Z,18.75
2022-10-18T11:09:13.061Z,18.77
2022-10-18T11:10:13.119Z,18.77
2022-10-18T11:11:13.069Z,18.80
2022-10-18T11:12:13.054Z,18.77
2022-10-18T11:13:13.059Z,18.80
2022-10-18T11:14:25.237Z,18.81
2022-10-18T11:15:13.008Z,18.84
2022-10-18T11:16:13.000Z,18.81
2022-10-18T11:17:13.012Z,18.83
2022-10-18T11:18:18.994Z,18.86
2022-10-18T11:19:12.953Z,18.86
2022-10-18T11:20:12.947Z,18.86
2022-10-18T11:21:12.949Z,18.83
2022-10-18T11:22:12.935Z,18.81
2022-10-18T11:23:12.911Z,18.80
2022-10-18T11:24:12.906Z,18.78
2022-10-18T11:25:12.893Z,18.80
2022-10-18T11:26:12.924Z,18.77
2022-10-18T11:27:13.064Z,18.78
2022-10-18T11:28:12.865Z,18.80
2022-10-18T11:29:12.862Z,18.78
2022-10-18T11:30:12.959Z,18.80
2022-10-18T11:31:12.845Z,18.84
2022-10-18T11:32:12.842Z,18.86
2022-10-18T11:33:12.824Z,18.84
2022-10-18T11:34:12.810Z,18.80
2022-10-18T11:35:12.778Z,18.83
2022-10-18T11:36:12.800Z,18.88
2022-10-18T11:37:31.053Z,18.88
2022-10-18T11:38:12.761Z,18.90
2022-10-18T11:39:12.742Z,18.92
2022-10-18T11:40:12.758Z,18.93
2022-10-18T11:41:12.716Z,18.92
2022-10-18T11:42:12.708Z,18.92
2022-10-18T11:43:12.764Z,18.92
2022-10-18T11:44:12.685Z,18.92
2022-10-18T11:45:12.677Z,18.93
2022-10-18T11:46:12.665Z,18.92
2022-10-18T11:47:12.653Z,18.92
2022-10-18T11:48:12.661Z,18.95
2022-10-18T11:49:12.680Z,18.99
2022-10-18T11:50:12.647Z,18.99
2022-10-18T11:51:12.621Z,18.96
2022-10-18T11:52:12.617Z,18.98
2022-10-18T11:53:12.596Z,18.93
2022-10-18T11:54:12.601Z,18.89
2022-10-18T11:55:12.568Z,18.88
2022-10-18T11:56:12.573Z,18.89
2022-10-18T11:57:12.568Z,18.89
2022-10-18T11:58:12.655Z,18.88
2022-10-18T11:59:12.702Z,18.90
2022-10-18T12:00:12.529Z,18.90
2022-10-18T12:01:12.501Z,18.93
2022-10-18T12:02:12.545Z,18.92
2022-10-18T12:03:12.585Z,18.92
2022-10-18T12:04:12.513Z,18.93
2022-10-18T12:05:23.122Z,18.96
2022-10-18T12:06:12.463Z,18.98
2022-10-18T12:07:12.436Z,18.99
2022-10-18T12:08:12.447Z,19.00
2022-10-18T12:09:12.442Z,19.02
2022-10-18T12:10:12.454Z,19.04
2022-10-18T12:11:12.415Z,19.11
2022-10-18T12:12:12.498Z,19.14
2022-10-18T12:13:12.368Z,19.14
2022-10-18T12:14:12.370Z,19.18
2022-10-18T12:15:12.375Z,19.24
2022-10-18T12:16:12.447Z,19.27
2022-10-18T12:17:40.632Z,19.31
2022-10-18T12:18:12.337Z,19.37
2022-10-18T12:19:12.310Z,19.39
2022-10-18T12:20:12.310Z,19.41
2022-10-18T12:21:12.338Z,19.45
2022-10-18T12:22:12.283Z,19.47
2022-10-18T12:23:12.287Z,19.49
2022-10-18T12:24:12.255Z,19.49
2022-10-18T12:25:12.250Z,19.48
2022-10-18T12:26:12.255Z,19.48
2022-10-18T12:27:12.257Z,19.48
2022-10-18T12:28:12.225Z,19.49
2022-10-18T12:29:12.205Z,19.48
2022-10-18T12:30:12.215Z,19.45
2022-10-18T12:31:12.188Z,19.45
2022-10-18T12:32:12.188Z,19.47
2022-10-18T12:33:28.833Z,19.45
2022-10-18T12:34:12.264Z,19.47
2022-10-18T12:35:12.189Z,19.41
2022-10-18T12:36:12.129Z,19.40
2022-10-18T12:37:12.118Z,19.37
2022-10-18T12:38:12.147Z,19.36
2022-10-18T12:39:12.137Z,19.34
2022-10-18T12:40:16.806Z,19.33
2022-10-18T12:41:12.107Z,19.34
2022-10-18T12:42:12.085Z,19.34
2022-10-18T12:43:12.056Z,19.33
2022-10-18T12:44:12.075Z,19.37
2022-10-18T12:45:12.040Z,19.36
2022-10-18T12:46:13.811Z,19.36
2022-10-18T12:47:12.020Z,19.34
2022-10-18T12:48:12.006Z,19.33
2022-10-18T12:49:11.996Z,19.36
2022-10-18T12:50:11.989Z,19.37
2022-10-18T12:51:11.977Z,19.37
2022-10-18T12:52:12.015Z,19.37
2022-10-18T12:53:11.942Z,19.36
2022-10-18T12:54:11.940Z,19.39
2022-10-18T12:55:16.811Z,19.39
2022-10-18T12:56:11.932Z,19.39
2022-10-18T12:57:11.922Z,19.41
2022-10-18T12:58:11.908Z,19.45
2022-10-18T12:59:11.889Z,19.52
2022-10-18T13:00:11.881Z,19.52
2022-10-18T13:01:11.966Z,19.55
2022-10-18T13:02:11.849Z,19.56
2022-10-18T13:03:11.836Z,19.58
2022-10-18T13:04:11.848Z,19.64
2022-10-18T13:05:21.218Z,19.66
2022-10-18T13:06:11.869Z,19.67
2022-10-18T13:07:11.802Z,19.71
2022-10-18T13:08:11.798Z,19.70
2022-10-18T13:09:11.776Z,19.70
2022-10-18T13:10:11.769Z,19.69
2022-10-18T13:11:11.767Z,19.66
2022-10-18T13:12:11.761Z,19.63
2022-10-18T13:13:29.570Z,19.63
2022-10-18T13:14:11.749Z,19.62
2022-10-18T13:15:25.350Z,19.62
2022-10-18T13:16:11.766Z,19.64
2022-10-18T13:17:11.699Z,19.63
2022-10-18T13:18:11.715Z,19.63
2022-10-18T13:19:11.672Z,19.58
2022-10-18T13:20:25.712Z,19.55
2022-10-18T13:21:11.659Z,19.54
2022-10-18T13:22:11.648Z,19.51
2022-10-18T13:23:11.714Z,19.49
2022-10-18T13:24:11.619Z,19.49
2022-10-18T13:25:11.610Z,19.49
2022-10-18T13:26:11.598Z,19.51
2022-10-18T13:28:11.590Z,19.51
2022-10-18T13:29:11.654Z,19.52
2022-10-18T13:30:12.352Z,19.55
2022-10-18T13:31:11.542Z,19.56
2022-10-18T13:32:11.586Z,19.56
2022-10-18T13:33:11.518Z,19.58
2022-10-18T13:34:11.507Z,19.58
2022-10-18T13:35:11.546Z,19.56
2022-10-18T13:36:11.490Z,19.56
2022-10-18T13:37:11.490Z,19.55
2022-10-18T13:38:11.484Z,19.55
2022-10-18T13:39:11.474Z,19.51
2022-10-18T13:40:11.443Z,19.49
2022-10-18T13:41:11.536Z,19.52
2022-10-18T13:42:11.420Z,19.48
2022-10-18T13:43:11.426Z,19.45
2022-10-18T13:44:11.418Z,19.41
2022-10-18T13:45:11.426Z,19.40
2022-10-18T13:46:11.399Z,19.40
2022-10-18T13:47:11.388Z,19.40
2022-10-18T13:48:11.367Z,19.37
2022-10-18T13:49:11.361Z,19.39
2022-10-18T13:50:11.420Z,19.37
2022-10-18T13:51:11.365Z,19.39
2022-10-18T13:52:11.319Z,19.36
2022-10-18T13:53:11.306Z,19.36
2022-10-18T13:54:11.366Z,19.36
2022-10-18T13:55:11.326Z,19.33
2022-10-18T13:56:11.280Z,19.36
2022-10-18T13:57:11.260Z,19.33
2022-10-18T13:58:11.257Z,19.36
2022-10-18T13:59:15.151Z,19.33
2022-10-18T14:00:11.243Z,19.31
2022-10-18T14:01:14.215Z,19.31
2022-10-18T14:02:11.261Z,19.33
2022-10-18T14:03:26.682Z,19.33
2022-10-18T14:04:11.188Z,19.33
2022-10-18T14:05:24.519Z,19.34
2022-10-18T14:06:11.172Z,19.36
2022-10-18T14:07:11.172Z,19.41
2022-10-18T14:08:11.170Z,19.40
2022-10-18T14:09:25.707Z,19.45
2022-10-18T14:10:11.131Z,19.45
2022-10-18T14:11:11.134Z,19.40
2022-10-18T14:12:11.139Z,19.44
2022-10-18T14:13:11.097Z,19.47
2022-10-18T14:14:11.086Z,19.45
2022-10-18T14:15:11.077Z,19.48
2022-10-18T14:16:11.067Z,19.48
2022-10-18T14:17:15.394Z,19.48
2022-10-18T14:18:11.088Z,19.49
2022-10-18T14:19:11.035Z,19.52
2022-10-18T14:20:11.020Z,19.58
2022-10-18T14:21:16.814Z,19.67
2022-10-18T14:22:11.005Z,19.69
2022-10-18T14:23:11.095Z,19.71
2022-10-18T14:24:10.977Z,19.73
2022-10-18T14:25:10.964Z,19.73
2022-10-18T14:26:10.973Z,19.76
2022-10-18T14:27:10.950Z,19.76
2022-10-18T14:28:12.259Z,19.79
2022-10-18T14:29:11.006Z,19.82
2022-10-18T14:30:10.935Z,19.86
2022-10-18T14:31:10.912Z,19.88
2022-10-18T14:32:10.898Z,19.94
2022-10-18T14:33:10.904Z,19.94
2022-10-18T14:34:10.895Z,19.95
2022-10-18T14:35:37.977Z,20.02
2022-10-18T14:36:14.522Z,20.02
2022-10-18T14:37:10.836Z,20.02
2022-10-18T14:38:10.819Z,20.04
2022-10-18T14:39:10.817Z,20.04
2022-10-18T14:40:10.824Z,20.02
2022-10-18T14:41:10.830Z,20.02
2022-10-18T14:42:10.781Z,20.03
2022-10-18T14:43:10.786Z,20.07
2022-10-18T14:44:10.796Z,20.11
2022-10-18T14:46:10.750Z,20.11
2022-10-18T14:47:10.732Z,20.16
2022-10-18T14:48:10.724Z,20.18
2022-10-18T14:49:10.712Z,20.14
2022-10-18T14:50:10.715Z,20.11
2022-10-18T14:51:10.689Z,20.11
2022-10-18T14:52:13.860Z,20.13
2022-10-18T14:53:10.679Z,20.13
2022-10-18T14:54:10.731Z,20.10
2022-10-18T14:55:10.672Z,20.10
2022-10-18T14:56:10.648Z,20.09
2022-10-18T14:57:10.631Z,20.11
2022-10-18T14:58:10.644Z,20.11
2022-10-18T14:59:10.610Z,20.11
2022-10-18T15:00:10.610Z,20.11
2022-10-18T15:01:10.617Z,20.14
2022-10-18T15:02:10.615Z,20.16
2022-10-18T15:03:10.577Z,20.19
2022-10-18T15:04:10.563Z,20.21
2022-10-18T15:05:10.544Z,20.22
2022-10-18T15:06:10.530Z,20.21
2022-10-18T15:07:10.522Z,20.25
2022-10-18T15:08:10.530Z,20.24
2022-10-18T15:09:10.502Z,20.24
2022-10-18T15:10:10.487Z,20.24
2022-10-18T15:11:13.453Z,20.28
2022-10-18T15:12:10.504Z,20.29
2022-10-18T15:13:11.432Z,20.28
2022-10-18T15:14:10.443Z,20.28
2022-10-18T15:15:10.433Z,20.29
2022-10-18T15:16:10.425Z,20.34
2022-10-18T15:17:10.407Z,20.36
2022-10-18T15:18:10.411Z,20.34
2022-10-18T15:19:10.399Z,20.37
2022-10-18T15:20:10.401Z,20.40
2022-10-18T15:21:10.377Z,20.44
2022-10-18T15:23:10.400Z,20.41
2022-10-18T15:24:10.339Z,20.44
2022-10-18T15:25:10.335Z,20.50
2022-10-18T15:26:10.318Z,20.51
2022-10-18T15:27:10.321Z,20.52
2022-10-18T15:28:10.298Z,20.50
2022-10-18T15:29:10.383Z,20.50
2022-10-18T15:30:10.283Z,20.47
2022-10-18T15:31:10.275Z,20.47
2022-10-18T15:32:10.248Z,20.48
2022-10-18T15:33:10.246Z,20.48
2022-10-18T15:34:10.237Z,20.48
2022-10-18T15:35:10.255Z,20.39
2022-10-18T15:36:10.222Z,20.39
2022-10-18T15:37:10.222Z,20.37
2022-10-18T15:38:10.190Z,20.34
2022-10-18T15:39:10.185Z,20.32
2022-10-18T15:40:10.337Z,20.31
2022-10-18T15:41:10.166Z,20.29
2022-10-18T15:42:10.138Z,20.29
2022-10-18T15:43:10.199Z,20.28
2022-10-18T15:44:13.270Z,20.28
2022-10-18T15:45:10.112Z,20.29
2022-10-18T15:46:10.135Z,20.22
2022-10-18T15:47:10.102Z,20.19
2022-10-18T15:48:10.090Z,20.16
2022-10-18T15:49:10.068Z,20.11
2022-10-18T15:50:10.076Z,20.11
2022-10-18T15:51:10.074Z,20.09
2022-10-18T15:52:10.039Z,20.06
2022-10-18T15:53:10.059Z,20.06
2022-10-18T15:54:10.016Z,20.04
2022-10-18T15:55:10.011Z,20.00
2022-10-18T15:56:10.001Z,19.99
2022-10-18T15:57:09.999Z,19.96
2022-10-18T15:58:10.003Z,19.95
2022-10-18T15:59:09.978Z,19.95
2022-10-18T16:00:09.955Z,19.92
2022-10-18T16:01:09.994Z,19.94
2022-10-18T16:02:09.931Z,19.91
2022-10-18T16:03:09.942Z,19.91
2022-10-18T16:04:09.913Z,19.89
2022-10-18T16:05:09.912Z,19.92
2022-10-18T16:06:11.376Z,19.89
2022-10-18T16:07:09.874Z,19.91
2022-10-18T16:08:09.879Z,19.89
2022-10-18T16:09:09.879Z,19.89
2022-10-18T16:10:09.864Z,19.89
2022-10-18T16:11:09.860Z,19.88
2022-10-18T16:12:09.818Z,19.84
2022-10-18T16:13:09.916Z,19.82
2022-10-18T16:14:09.813Z,19.81
2022-10-18T16:15:09.805Z,19.77
2022-10-18T16:16:09.854Z,19.76
2022-10-18T16:17:09.774Z,19.76
2022-10-18T16:18:09.786Z,19.74
2022-10-18T16:19:10.130Z,19.73
2022-10-18T16:20:09.759Z,19.71
2022-10-18T16:21:09.767Z,19.67
2022-10-18T16:22:09.806Z,19.63
2022-10-18T16:23:09.798Z,19.59
2022-10-18T16:24:09.709Z,19.58
2022-10-18T16:25:09.686Z,19.51
2022-10-18T16:26:09.737Z,19.51
2022-10-18T16:27:09.671Z,19.49
2022-10-18T16:28:09.712Z,19.48
2022-10-18T16:29:09.718Z,19.48
2022-10-18T16:30:10.691Z,19.44
2022-10-18T16:31:09.698Z,19.41
2022-10-18T16:32:09.608Z,19.39
2022-10-18T16:33:09.625Z,19.37
2022-10-18T16:34:09.609Z,19.33
2022-10-18T16:35:09.593Z,19.30
2022-10-18T16:36:09.593Z,19.30
2022-10-18T16:37:09.568Z,19.31
2022-10-18T16:38:09.554Z,19.27
2022-10-18T16:39:09.534Z,19.24
2022-10-18T16:40:09.632Z,19.21
2022-10-18T16:41:09.538Z,19.18
2022-10-18T16:42:09.509Z,19.16
2022-10-18T16:43:09.518Z,19.15
2022-10-18T16:44:09.481Z,19.11
2022-10-18T16:45:09.517Z,19.08
2022-10-18T16:46:09.465Z,19.09